sensor_id;sensor_type;location;lat;lon;timestamp;P1;durP1;ratioP1;P2;durP2;ratioP2
71298;SDS011;59083;47.974;21.722;2022-11-20T00:01:40;29.05;;;12.07;;
71298;SDS011;59083;47.974;21.722;2022-11-20T00:04:42;30.45;;;12.80;;
71298;SDS011;59083;47.974;21.722;2022-11-20T00:07:43;30.17;;;12.27;;
71298;SDS011;59083;47.974;21.722;2022-11-20T00:10:44;34.47;;;12.40;;
71298;SDS011;59083;47.974;21.722;2022-11-20T00:13:46;28.13;;;12.00;;
71298;SDS011;59083;47.974;21.722;2022-11-20T00:16:49;33.30;;;12.48;;
71298;SDS011;59083;47.974;21.722;2022-11-20T00:19:50;31.08;;;13.15;;
71298;SDS011;59083;47.974;21.722;2022-11-20T00:22:51;33.75;;;12.20;;
71298;SDS011;59083;47.974;21.722;2022-11-20T00:25:53;30.10;;;13.20;;
71298;SDS011;59083;47.974;21.722;2022-11-20T00:28:55;33.77;;;12.63;;
71298;SDS011;59083;47.974;21.722;2022-11-20T00:31:58;32.65;;;12.25;;
71298;SDS011;59083;47.974;21.722;2022-11-20T00:34:59;31.55;;;13.00;;
71298;SDS011;59083;47.974;21.722;2022-11-20T00:38:01;33.78;;;13.13;;
71298;SDS011;59083;47.974;21.722;2022-11-20T00:41:06;30.60;;;12.83;;
71298;SDS011;59083;47.974;21.722;2022-11-20T00:44:09;29.47;;;11.67;;
71298;SDS011;59083;47.974;21.722;2022-11-20T00:47:10;29.15;;;13.27;;
71298;SDS011;59083;47.974;21.722;2022-11-20T00:50:11;33.45;;;12.35;;
71298;SDS011;59083;47.974;21.722;2022-11-20T00:53:12;28.85;;;11.90;;
71298;SDS011;59083;47.974;21.722;2022-11-20T00:56:15;32.50;;;13.30;;
71298;SDS011;59083;47.974;21.722;2022-11-20T00:59:18;27.17;;;12.17;;
71298;SDS011;59083;47.974;21.722;2022-11-20T01:02:19;30.33;;;12.13;;
71298;SDS011;59083;47.974;21.722;2022-11-20T01:05:21;26.40;;;11.73;;
71298;SDS011;59083;47.974;21.722;2022-11-20T01:08:22;30.75;;;12.90;;
71298;SDS011;59083;47.974;21.722;2022-11-20T01:11:33;31.37;;;13.27;;
71298;SDS011;59083;47.974;21.722;2022-11-20T01:14:36;32.20;;;13.30;;
71298;SDS011;59083;47.974;21.722;2022-11-20T01:17:37;30.90;;;12.85;;
71298;SDS011;59083;47.974;21.722;2022-11-20T01:20:38;33.28;;;12.85;;
71298;SDS011;59083;47.974;21.722;2022-11-20T01:23:40;30.05;;;12.98;;
71298;SDS011;59083;47.974;21.722;2022-11-20T01:26:43;32.13;;;12.83;;
71298;SDS011;59083;47.974;21.722;2022-11-20T01:29:46;31.77;;;13.67;;
71298;SDS011;59083;47.974;21.722;2022-11-20T01:32:47;37.90;;;14.27;;
71298;SDS011;59083;47.974;21.722;2022-11-20T01:35:48;32.63;;;12.63;;
71298;SDS011;59083;47.974;21.722;2022-11-20T01:38:53;31.73;;;12.23;;
71298;SDS011;59083;47.974;21.722;2022-11-20T01:41:56;29.87;;;12.20;;
71298;SDS011;59083;47.974;21.722;2022-11-20T01:48:56;31.67;;;12.13;;
71298;SDS011;59083;47.974;21.722;2022-11-20T01:52:06;29.77;;;12.35;;
71298;SDS011;59083;47.974;21.722;2022-11-20T01:55:15;28.85;;;12.35;;
71298;SDS011;59083;47.974;21.722;2022-11-20T01:58:20;29.97;;;11.63;;
71298;SDS011;59083;47.974;21.722;2022-11-20T02:01:27;30.07;;;10.90;;
71298;SDS011;59083;47.974;21.722;2022-11-20T02:04:28;34.47;;;13.10;;
71298;SDS011;59083;47.974;21.722;2022-11-20T02:07:29;30.88;;;12.68;;
71298;SDS011;59083;47.974;21.722;2022-11-20T02:10:32;29.55;;;12.43;;
71298;SDS011;59083;47.974;21.722;2022-11-20T02:13:34;28.53;;;11.53;;
71298;SDS011;59083;47.974;21.722;2022-11-20T02:16:45;30.63;;;13.07;;
71298;SDS011;59083;47.974;21.722;2022-11-20T02:19:48;28.42;;;12.23;;
71298;SDS011;59083;47.974;21.722;2022-11-20T02:23:08;33.92;;;13.00;;
71298;SDS011;59083;47.974;21.722;2022-11-20T02:26:13;33.90;;;13.70;;
71298;SDS011;59083;47.974;21.722;2022-11-20T02:29:19;31.57;;;13.00;;
71298;SDS011;59083;47.974;21.722;2022-11-20T02:32:27;29.10;;;12.33;;
71298;SDS011;59083;47.974;21.722;2022-11-20T02:38:32;29.45;;;12.05;;
71298;SDS011;59083;47.974;21.722;2022-11-20T02:41:36;28.90;;;11.52;;
71298;SDS011;59083;47.974;21.722;2022-11-20T02:44:38;31.37;;;12.43;;
71298;SDS011;59083;47.974;21.722;2022-11-20T02:47:39;28.47;;;12.30;;
71298;SDS011;59083;47.974;21.722;2022-11-20T02:50:40;29.23;;;12.70;;
71298;SDS011;59083;47.974;21.722;2022-11-20T02:53:42;27.35;;;11.38;;
71298;SDS011;59083;47.974;21.722;2022-11-20T02:56:43;29.23;;;11.20;;
71298;SDS011;59083;47.974;21.722;2022-11-20T02:59:45;29.30;;;11.00;;
71298;SDS011;59083;47.974;21.722;2022-11-20T03:02:46;28.70;;;12.43;;
71298;SDS011;59083;47.974;21.722;2022-11-20T03:05:47;29.37;;;11.55;;
71298;SDS011;59083;47.974;21.722;2022-11-20T03:08:48;31.50;;;12.55;;
71298;SDS011;59083;47.974;21.722;2022-11-20T03:11:49;28.48;;;11.93;;
71298;SDS011;59083;47.974;21.722;2022-11-20T03:14:51;32.67;;;11.40;;
71298;SDS011;59083;47.974;21.722;2022-11-20T03:17:55;28.57;;;12.07;;
71298;SDS011;59083;47.974;21.722;2022-11-20T03:20:57;28.05;;;11.27;;
71298;SDS011;59083;47.974;21.722;2022-11-20T03:24:00;30.52;;;11.80;;
71298;SDS011;59083;47.974;21.722;2022-11-20T03:27:01;31.48;;;12.15;;
71298;SDS011;59083;47.974;21.722;2022-11-20T03:30:03;26.07;;;11.17;;
71298;SDS011;59083;47.974;21.722;2022-11-20T03:33:05;32.67;;;12.63;;
71298;SDS011;59083;47.974;21.722;2022-11-20T03:36:08;26.55;;;11.15;;
71298;SDS011;59083;47.974;21.722;2022-11-20T03:39:11;26.55;;;11.12;;
71298;SDS011;59083;47.974;21.722;2022-11-20T03:42:12;28.33;;;11.30;;
71298;SDS011;59083;47.974;21.722;2022-11-20T03:45:32;27.80;;;11.30;;
71298;SDS011;59083;47.974;21.722;2022-11-20T03:48:33;25.03;;;10.40;;
71298;SDS011;59083;47.974;21.722;2022-11-20T03:51:35;28.98;;;11.77;;
71298;SDS011;59083;47.974;21.722;2022-11-20T03:54:37;27.52;;;11.60;;
71298;SDS011;59083;47.974;21.722;2022-11-20T03:57:38;27.23;;;10.85;;
71298;SDS011;59083;47.974;21.722;2022-11-20T04:00:39;25.67;;;10.40;;
71298;SDS011;59083;47.974;21.722;2022-11-20T04:03:41;28.37;;;11.90;;
71298;SDS011;59083;47.974;21.722;2022-11-20T04:06:43;27.98;;;10.73;;
71298;SDS011;59083;47.974;21.722;2022-11-20T04:09:44;28.17;;;11.23;;
71298;SDS011;59083;47.974;21.722;2022-11-20T04:12:45;26.45;;;11.68;;
71298;SDS011;59083;47.974;21.722;2022-11-20T04:15:47;27.93;;;11.30;;
71298;SDS011;59083;47.974;21.722;2022-11-20T04:18:52;25.90;;;10.97;;
71298;SDS011;59083;47.974;21.722;2022-11-20T04:21:54;30.83;;;11.00;;
71298;SDS011;59083;47.974;21.722;2022-11-20T04:24:55;25.75;;;10.88;;
71298;SDS011;59083;47.974;21.722;2022-11-20T04:27:57;28.87;;;11.05;;
71298;SDS011;59083;47.974;21.722;2022-11-20T04:31:02;29.47;;;11.67;;
71298;SDS011;59083;47.974;21.722;2022-11-20T04:34:10;28.90;;;11.37;;
71298;SDS011;59083;47.974;21.722;2022-11-20T04:37:12;25.48;;;11.15;;
71298;SDS011;59083;47.974;21.722;2022-11-20T04:40:13;29.23;;;11.60;;
71298;SDS011;59083;47.974;21.722;2022-11-20T04:43:14;29.45;;;11.27;;
71298;SDS011;59083;47.974;21.722;2022-11-20T04:46:16;28.83;;;11.67;;
71298;SDS011;59083;47.974;21.722;2022-11-20T04:49:18;28.67;;;11.70;;
71298;SDS011;59083;47.974;21.722;2022-11-20T04:52:20;26.92;;;11.12;;
71298;SDS011;59083;47.974;21.722;2022-11-20T04:55:21;26.75;;;11.50;;
71298;SDS011;59083;47.974;21.722;2022-11-20T04:58:22;28.05;;;11.80;;
71298;SDS011;59083;47.974;21.722;2022-11-20T05:01:24;24.67;;;10.90;;
71298;SDS011;59083;47.974;21.722;2022-11-20T05:04:25;28.93;;;11.63;;
71298;SDS011;59083;47.974;21.722;2022-11-20T05:07:26;29.25;;;11.60;;
71298;SDS011;59083;47.974;21.722;2022-11-20T05:10:28;29.95;;;11.88;;
71298;SDS011;59083;47.974;21.722;2022-11-20T05:13:29;27.02;;;11.43;;
71298;SDS011;59083;47.974;21.722;2022-11-20T05:16:30;26.10;;;11.10;;
71298;SDS011;59083;47.974;21.722;2022-11-20T05:19:31;26.33;;;10.83;;
71298;SDS011;59083;47.974;21.722;2022-11-20T05:22:33;24.52;;;10.68;;
71298;SDS011;59083;47.974;21.722;2022-11-20T05:25:34;25.35;;;10.95;;
71298;SDS011;59083;47.974;21.722;2022-11-20T05:28:35;28.35;;;11.00;;
71298;SDS011;59083;47.974;21.722;2022-11-20T05:31:36;26.47;;;11.10;;
71298;SDS011;59083;47.974;21.722;2022-11-20T05:34:39;27.17;;;11.40;;
71298;SDS011;59083;47.974;21.722;2022-11-20T05:37:40;30.00;;;11.48;;
71298;SDS011;59083;47.974;21.722;2022-11-20T05:40:41;28.98;;;11.38;;
71298;SDS011;59083;47.974;21.722;2022-11-20T05:43:43;29.00;;;10.65;;
71298;SDS011;59083;47.974;21.722;2022-11-20T05:46:46;27.20;;;10.77;;
71298;SDS011;59083;47.974;21.722;2022-11-20T05:49:47;25.70;;;10.47;;
71298;SDS011;59083;47.974;21.722;2022-11-20T05:52:48;29.60;;;11.12;;
71298;SDS011;59083;47.974;21.722;2022-11-20T05:55:59;27.02;;;11.30;;
71298;SDS011;59083;47.974;21.722;2022-11-20T05:59:12;29.25;;;10.80;;
71298;SDS011;59083;47.974;21.722;2022-11-20T06:02:13;28.37;;;11.30;;
71298;SDS011;59083;47.974;21.722;2022-11-20T06:05:14;28.97;;;11.27;;
71298;SDS011;59083;47.974;21.722;2022-11-20T06:08:16;26.33;;;10.40;;
71298;SDS011;59083;47.974;21.722;2022-11-20T06:11:17;25.65;;;10.50;;
71298;SDS011;59083;47.974;21.722;2022-11-20T06:14:18;25.08;;;10.68;;
71298;SDS011;59083;47.974;21.722;2022-11-20T06:17:20;25.50;;;10.23;;
71298;SDS011;59083;47.974;21.722;2022-11-20T06:20:21;24.33;;;10.73;;
71298;SDS011;59083;47.974;21.722;2022-11-20T06:23:23;23.17;;;10.15;;
71298;SDS011;59083;47.974;21.722;2022-11-20T06:26:25;27.25;;;11.30;;
71298;SDS011;59083;47.974;21.722;2022-11-20T06:29:28;27.13;;;11.23;;
71298;SDS011;59083;47.974;21.722;2022-11-20T06:32:29;27.37;;;10.20;;
71298;SDS011;59083;47.974;21.722;2022-11-20T06:35:31;27.03;;;10.07;;
71298;SDS011;59083;47.974;21.722;2022-11-20T06:38:32;28.90;;;10.70;;
71298;SDS011;59083;47.974;21.722;2022-11-20T06:41:33;24.73;;;10.52;;
71298;SDS011;59083;47.974;21.722;2022-11-20T06:44:34;34.42;;;10.63;;
71298;SDS011;59083;47.974;21.722;2022-11-20T06:47:36;28.50;;;10.37;;
71298;SDS011;59083;47.974;21.722;2022-11-20T06:50:37;25.90;;;10.47;;
71298;SDS011;59083;47.974;21.722;2022-11-20T06:53:38;26.87;;;10.65;;
71298;SDS011;59083;47.974;21.722;2022-11-20T06:56:40;27.13;;;10.85;;
71298;SDS011;59083;47.974;21.722;2022-11-20T06:59:41;23.67;;;10.38;;
71298;SDS011;59083;47.974;21.722;2022-11-20T07:02:42;27.00;;;10.40;;
71298;SDS011;59083;47.974;21.722;2022-11-20T07:05:43;26.20;;;11.00;;
71298;SDS011;59083;47.974;21.722;2022-11-20T07:08:46;27.73;;;10.82;;
71298;SDS011;59083;47.974;21.722;2022-11-20T07:11:48;27.52;;;11.27;;
71298;SDS011;59083;47.974;21.722;2022-11-20T07:14:49;27.50;;;10.65;;
71298;SDS011;59083;47.974;21.722;2022-11-20T07:17:50;25.23;;;11.13;;
71298;SDS011;59083;47.974;21.722;2022-11-20T07:20:52;26.53;;;11.03;;
71298;SDS011;59083;47.974;21.722;2022-11-20T07:23:53;28.20;;;12.50;;
71298;SDS011;59083;47.974;21.722;2022-11-20T07:26:54;26.65;;;11.30;;
71298;SDS011;59083;47.974;21.722;2022-11-20T07:29:55;31.35;;;12.52;;
71298;SDS011;59083;47.974;21.722;2022-11-20T07:32:57;27.40;;;11.57;;
71298;SDS011;59083;47.974;21.722;2022-11-20T07:35:58;26.20;;;11.30;;
71298;SDS011;59083;47.974;21.722;2022-11-20T07:39:00;27.25;;;11.70;;
71298;SDS011;59083;47.974;21.722;2022-11-20T07:42:02;27.65;;;11.68;;
71298;SDS011;59083;47.974;21.722;2022-11-20T07:45:03;27.37;;;10.52;;
71298;SDS011;59083;47.974;21.722;2022-11-20T07:48:05;29.73;;;12.00;;
71298;SDS011;59083;47.974;21.722;2022-11-20T07:51:06;22.87;;;10.33;;
71298;SDS011;59083;47.974;21.722;2022-11-20T07:54:07;25.98;;;11.85;;
71298;SDS011;59083;47.974;21.722;2022-11-20T07:57:08;27.92;;;11.55;;
71298;SDS011;59083;47.974;21.722;2022-11-20T08:00:10;27.17;;;11.43;;
71298;SDS011;59083;47.974;21.722;2022-11-20T08:03:12;26.30;;;10.20;;
71298;SDS011;59083;47.974;21.722;2022-11-20T08:06:17;24.53;;;10.23;;
71298;SDS011;59083;47.974;21.722;2022-11-20T08:09:20;23.75;;;10.43;;
71298;SDS011;59083;47.974;21.722;2022-11-20T08:12:22;25.75;;;10.90;;
71298;SDS011;59083;47.974;21.722;2022-11-20T08:15:41;25.83;;;9.88;;
71298;SDS011;59083;47.974;21.722;2022-11-20T08:18:49;23.10;;;9.93;;
71298;SDS011;59083;47.974;21.722;2022-11-20T08:21:50;26.23;;;10.57;;
71298;SDS011;59083;47.974;21.722;2022-11-20T08:24:52;22.08;;;9.15;;
71298;SDS011;59083;47.974;21.722;2022-11-20T08:27:53;24.17;;;9.38;;
71298;SDS011;59083;47.974;21.722;2022-11-20T08:30:58;21.23;;;8.98;;
71298;SDS011;59083;47.974;21.722;2022-11-20T08:34:01;23.70;;;10.20;;
71298;SDS011;59083;47.974;21.722;2022-11-20T08:37:02;22.70;;;10.00;;
71298;SDS011;59083;47.974;21.722;2022-11-20T08:40:03;25.33;;;10.43;;
71298;SDS011;59083;47.974;21.722;2022-11-20T08:43:05;26.87;;;10.93;;
71298;SDS011;59083;47.974;21.722;2022-11-20T08:46:06;24.20;;;10.98;;
71298;SDS011;59083;47.974;21.722;2022-11-20T08:49:08;25.47;;;10.63;;
71298;SDS011;59083;47.974;21.722;2022-11-20T08:52:11;26.27;;;10.60;;
71298;SDS011;59083;47.974;21.722;2022-11-20T08:55:12;24.27;;;10.23;;
71298;SDS011;59083;47.974;21.722;2022-11-20T08:58:14;40.45;;;11.07;;
71298;SDS011;59083;47.974;21.722;2022-11-20T09:01:15;20.65;;;9.45;;
71298;SDS011;59083;47.974;21.722;2022-11-20T09:04:16;21.87;;;9.90;;
71298;SDS011;59083;47.974;21.722;2022-11-20T09:07:17;22.13;;;9.70;;
71298;SDS011;59083;47.974;21.722;2022-11-20T09:10:18;22.17;;;8.88;;
71298;SDS011;59083;47.974;21.722;2022-11-20T09:13:20;22.62;;;8.65;;
71298;SDS011;59083;47.974;21.722;2022-11-20T09:16:22;23.73;;;10.40;;
71298;SDS011;59083;47.974;21.722;2022-11-20T09:19:24;21.10;;;8.23;;
71298;SDS011;59083;47.974;21.722;2022-11-20T09:22:25;22.57;;;9.60;;
71298;SDS011;59083;47.974;21.722;2022-11-20T09:25:26;26.12;;;11.85;;
71298;SDS011;59083;47.974;21.722;2022-11-20T09:28:28;21.62;;;9.70;;
71298;SDS011;59083;47.974;21.722;2022-11-20T09:31:29;23.98;;;9.80;;
71298;SDS011;59083;47.974;21.722;2022-11-20T09:34:31;21.67;;;9.90;;
71298;SDS011;59083;47.974;21.722;2022-11-20T09:37:32;26.17;;;10.77;;
71298;SDS011;59083;47.974;21.722;2022-11-20T09:40:34;24.83;;;10.70;;
71298;SDS011;59083;47.974;21.722;2022-11-20T09:43:49;22.50;;;9.55;;
71298;SDS011;59083;47.974;21.722;2022-11-20T09:47:02;21.75;;;9.20;;
71298;SDS011;59083;47.974;21.722;2022-11-20T09:53:52;18.63;;;7.60;;
71298;SDS011;59083;47.974;21.722;2022-11-20T09:57:21;19.65;;;8.65;;
71298;SDS011;59083;47.974;21.722;2022-11-20T10:00:26;20.33;;;8.95;;
71298;SDS011;59083;47.974;21.722;2022-11-20T10:03:35;19.20;;;8.27;;
71298;SDS011;59083;47.974;21.722;2022-11-20T10:10:13;17.43;;;7.70;;
71298;SDS011;59083;47.974;21.722;2022-11-20T10:20:15;14.60;;;6.50;;
71298;SDS011;59083;47.974;21.722;2022-11-20T10:30:27;16.77;;;6.90;;
71298;SDS011;59083;47.974;21.722;2022-11-20T10:33:32;16.48;;;6.80;;
71298;SDS011;59083;47.974;21.722;2022-11-20T10:36:41;16.52;;;7.40;;
71298;SDS011;59083;47.974;21.722;2022-11-20T10:43:32;25.73;;;10.57;;
71298;SDS011;59083;47.974;21.722;2022-11-20T10:46:36;18.05;;;7.12;;
71298;SDS011;59083;47.974;21.722;2022-11-20T10:49:54;14.50;;;6.97;;
71298;SDS011;59083;47.974;21.722;2022-11-20T11:03:01;21.00;;;8.00;;
71298;SDS011;59083;47.974;21.722;2022-11-20T11:06:06;17.48;;;7.72;;
71298;SDS011;59083;47.974;21.722;2022-11-20T11:09:16;16.83;;;7.50;;
71298;SDS011;59083;47.974;21.722;2022-11-20T11:12:22;17.30;;;7.87;;
71298;SDS011;59083;47.974;21.722;2022-11-20T11:15:30;16.73;;;7.00;;
71298;SDS011;59083;47.974;21.722;2022-11-20T11:18:41;20.27;;;7.47;;
71298;SDS011;59083;47.974;21.722;2022-11-20T11:21:50;17.92;;;7.60;;
71298;SDS011;59083;47.974;21.722;2022-11-20T11:24:54;17.58;;;7.75;;
71298;SDS011;59083;47.974;21.722;2022-11-20T11:27:57;18.50;;;7.90;;
71298;SDS011;59083;47.974;21.722;2022-11-20T11:31:00;18.27;;;8.07;;
71298;SDS011;59083;47.974;21.722;2022-11-20T11:34:11;17.52;;;7.80;;
71298;SDS011;59083;47.974;21.722;2022-11-20T11:37:17;15.80;;;7.30;;
71298;SDS011;59083;47.974;21.722;2022-11-20T11:40:22;19.90;;;7.72;;
71298;SDS011;59083;47.974;21.722;2022-11-20T11:43:28;17.37;;;8.33;;
71298;SDS011;59083;47.974;21.722;2022-11-20T11:46:52;18.43;;;8.13;;
71298;SDS011;59083;47.974;21.722;2022-11-20T11:53:12;18.62;;;8.07;;
71298;SDS011;59083;47.974;21.722;2022-11-20T11:56:17;17.58;;;7.85;;
71298;SDS011;59083;47.974;21.722;2022-11-20T11:59:24;16.47;;;7.93;;
71298;SDS011;59083;47.974;21.722;2022-11-20T12:02:32;17.07;;;8.10;;
71298;SDS011;59083;47.974;21.722;2022-11-20T12:05:49;17.30;;;8.10;;
71298;SDS011;59083;47.974;21.722;2022-11-20T12:09:10;17.17;;;7.95;;
71298;SDS011;59083;47.974;21.722;2022-11-20T12:12:15;20.92;;;9.35;;
71298;SDS011;59083;47.974;21.722;2022-11-20T12:15:23;19.13;;;8.57;;
71298;SDS011;59083;47.974;21.722;2022-11-20T12:18:29;18.33;;;8.47;;
71298;SDS011;59083;47.974;21.722;2022-11-20T12:21:38;18.85;;;8.70;;
71298;SDS011;59083;47.974;21.722;2022-11-20T12:28:28;19.67;;;9.57;;
71298;SDS011;59083;47.974;21.722;2022-11-20T12:56:05;20.58;;;9.63;;
71298;SDS011;59083;47.974;21.722;2022-11-20T13:06:11;21.57;;;10.03;;
71298;SDS011;59083;47.974;21.722;2022-11-20T13:09:22;19.97;;;10.07;;
71298;SDS011;59083;47.974;21.722;2022-11-20T13:12:27;22.23;;;10.30;;
71298;SDS011;59083;47.974;21.722;2022-11-20T13:18:38;20.33;;;9.77;;
71298;SDS011;59083;47.974;21.722;2022-11-20T13:21:47;21.23;;;10.17;;
71298;SDS011;59083;47.974;21.722;2022-11-20T13:24:53;19.83;;;9.23;;
71298;SDS011;59083;47.974;21.722;2022-11-20T13:27:55;22.58;;;9.93;;
71298;SDS011;59083;47.974;21.722;2022-11-20T13:30:57;20.88;;;9.30;;
71298;SDS011;59083;47.974;21.722;2022-11-20T13:33:59;20.15;;;9.52;;
71298;SDS011;59083;47.974;21.722;2022-11-20T13:37:05;17.20;;;8.87;;
71298;SDS011;59083;47.974;21.722;2022-11-20T13:43:15;19.52;;;9.55;;
71298;SDS011;59083;47.974;21.722;2022-11-20T13:46:38;34.78;;;17.70;;
71298;SDS011;59083;47.974;21.722;2022-11-20T13:49:42;24.37;;;11.82;;
71298;SDS011;59083;47.974;21.722;2022-11-20T13:56:10;23.37;;;10.30;;
71298;SDS011;59083;47.974;21.722;2022-11-20T14:02:37;21.10;;;10.43;;
71298;SDS011;59083;47.974;21.722;2022-11-20T14:05:40;23.50;;;11.50;;
71298;SDS011;59083;47.974;21.722;2022-11-20T14:08:51;25.93;;;12.30;;
71298;SDS011;59083;47.974;21.722;2022-11-20T14:11:53;25.73;;;12.07;;
71298;SDS011;59083;47.974;21.722;2022-11-20T14:14:54;26.25;;;12.13;;
71298;SDS011;59083;47.974;21.722;2022-11-20T14:17:56;25.73;;;12.13;;
71298;SDS011;59083;47.974;21.722;2022-11-20T14:21:00;27.08;;;13.00;;
71298;SDS011;59083;47.974;21.722;2022-11-20T14:24:06;27.77;;;12.43;;
71298;SDS011;59083;47.974;21.722;2022-11-20T14:27:15;28.40;;;13.10;;
71298;SDS011;59083;47.974;21.722;2022-11-20T14:30:21;28.92;;;12.98;;
71298;SDS011;59083;47.974;21.722;2022-11-20T14:33:25;32.47;;;13.62;;
71298;SDS011;59083;47.974;21.722;2022-11-20T14:36:27;27.48;;;12.68;;
71298;SDS011;59083;47.974;21.722;2022-11-20T14:42:37;27.33;;;12.57;;
71298;SDS011;59083;47.974;21.722;2022-11-20T14:45:44;28.48;;;12.95;;
71298;SDS011;59083;47.974;21.722;2022-11-20T14:48:51;28.52;;;12.68;;
71298;SDS011;59083;47.974;21.722;2022-11-20T14:52:01;36.53;;;13.45;;
71298;SDS011;59083;47.974;21.722;2022-11-20T14:55:13;30.47;;;13.90;;
71298;SDS011;59083;47.974;21.722;2022-11-20T14:58:29;27.23;;;13.57;;
71298;SDS011;59083;47.974;21.722;2022-11-20T15:01:32;32.97;;;14.50;;
71298;SDS011;59083;47.974;21.722;2022-11-20T15:04:44;30.40;;;14.60;;
71298;SDS011;59083;47.974;21.722;2022-11-20T15:07:52;31.37;;;14.23;;
71298;SDS011;59083;47.974;21.722;2022-11-20T15:11:19;31.33;;;14.90;;
71298;SDS011;59083;47.974;21.722;2022-11-20T15:14:26;32.63;;;15.30;;
71298;SDS011;59083;47.974;21.722;2022-11-20T15:17:29;37.85;;;16.27;;
71298;SDS011;59083;47.974;21.722;2022-11-20T15:20:32;35.88;;;16.83;;
71298;SDS011;59083;47.974;21.722;2022-11-20T15:23:34;35.95;;;17.15;;
71298;SDS011;59083;47.974;21.722;2022-11-20T15:26:35;35.60;;;16.60;;
71298;SDS011;59083;47.974;21.722;2022-11-20T15:29:40;36.33;;;15.67;;
71298;SDS011;59083;47.974;21.722;2022-11-20T15:32:42;31.20;;;14.60;;
71298;SDS011;59083;47.974;21.722;2022-11-20T15:35:44;33.13;;;15.63;;
71298;SDS011;59083;47.974;21.722;2022-11-20T15:38:46;33.42;;;14.98;;
71298;SDS011;59083;47.974;21.722;2022-11-20T15:41:48;37.57;;;16.10;;
71298;SDS011;59083;47.974;21.722;2022-11-20T15:44:49;39.80;;;17.53;;
71298;SDS011;59083;47.974;21.722;2022-11-20T15:47:51;42.22;;;18.50;;
71298;SDS011;59083;47.974;21.722;2022-11-20T15:50:57;39.08;;;16.77;;
71298;SDS011;59083;47.974;21.722;2022-11-20T15:54:10;39.38;;;17.73;;
71298;SDS011;59083;47.974;21.722;2022-11-20T15:57:14;36.33;;;17.17;;
71298;SDS011;59083;47.974;21.722;2022-11-20T16:00:15;35.87;;;16.00;;
71298;SDS011;59083;47.974;21.722;2022-11-20T16:03:17;35.15;;;16.20;;
71298;SDS011;59083;47.974;21.722;2022-11-20T16:06:19;31.62;;;15.02;;
71298;SDS011;59083;47.974;21.722;2022-11-20T16:09:21;35.88;;;14.70;;
71298;SDS011;59083;47.974;21.722;2022-11-20T16:12:22;34.93;;;15.53;;
71298;SDS011;59083;47.974;21.722;2022-11-20T16:15:44;34.93;;;14.90;;
71298;SDS011;59083;47.974;21.722;2022-11-20T16:18:56;36.13;;;15.30;;
71298;SDS011;59083;47.974;21.722;2022-11-20T16:21:58;37.30;;;15.48;;
71298;SDS011;59083;47.974;21.722;2022-11-20T16:25:01;35.63;;;15.38;;
71298;SDS011;59083;47.974;21.722;2022-11-20T16:28:03;39.90;;;16.10;;
71298;SDS011;59083;47.974;21.722;2022-11-20T16:31:15;38.60;;;17.10;;
71298;SDS011;59083;47.974;21.722;2022-11-20T16:34:18;39.67;;;16.05;;
71298;SDS011;59083;47.974;21.722;2022-11-20T16:37:19;37.45;;;17.65;;
71298;SDS011;59083;47.974;21.722;2022-11-20T16:40:20;38.13;;;17.20;;
71298;SDS011;59083;47.974;21.722;2022-11-20T16:43:22;37.03;;;17.83;;
71298;SDS011;59083;47.974;21.722;2022-11-20T16:46:25;42.97;;;18.60;;
71298;SDS011;59083;47.974;21.722;2022-11-20T16:49:28;39.58;;;17.58;;
71298;SDS011;59083;47.974;21.722;2022-11-20T16:52:29;41.10;;;18.95;;
71298;SDS011;59083;47.974;21.722;2022-11-20T16:55:31;43.22;;;19.33;;
71298;SDS011;59083;47.974;21.722;2022-11-20T16:58:32;40.80;;;19.10;;
71298;SDS011;59083;47.974;21.722;2022-11-20T17:01:33;42.13;;;18.93;;
71298;SDS011;59083;47.974;21.722;2022-11-20T17:04:38;42.92;;;19.12;;
71298;SDS011;59083;47.974;21.722;2022-11-20T17:07:39;48.47;;;18.52;;
71298;SDS011;59083;47.974;21.722;2022-11-20T17:10:41;44.65;;;19.17;;
71298;SDS011;59083;47.974;21.722;2022-11-20T17:13:42;44.07;;;19.43;;
71298;SDS011;59083;47.974;21.722;2022-11-20T17:16:43;43.77;;;17.93;;
71298;SDS011;59083;47.974;21.722;2022-11-20T17:19:44;39.40;;;18.33;;
71298;SDS011;59083;47.974;21.722;2022-11-20T17:22:46;45.12;;;18.87;;
71298;SDS011;59083;47.974;21.722;2022-11-20T17:25:47;43.33;;;18.65;;
71298;SDS011;59083;47.974;21.722;2022-11-20T17:28:55;48.90;;;18.30;;
71298;SDS011;59083;47.974;21.722;2022-11-20T17:31:59;40.43;;;18.77;;
71298;SDS011;59083;47.974;21.722;2022-11-20T17:35:00;42.42;;;18.87;;
71298;SDS011;59083;47.974;21.722;2022-11-20T17:38:01;41.53;;;18.60;;
71298;SDS011;59083;47.974;21.722;2022-11-20T17:41:04;43.45;;;19.02;;
71298;SDS011;59083;47.974;21.722;2022-11-20T17:44:10;40.10;;;18.13;;
71298;SDS011;59083;47.974;21.722;2022-11-20T17:47:12;45.93;;;19.67;;
71298;SDS011;59083;47.974;21.722;2022-11-20T17:50:13;44.88;;;18.80;;
71298;SDS011;59083;47.974;21.722;2022-11-20T17:53:15;46.85;;;19.67;;
71298;SDS011;59083;47.974;21.722;2022-11-20T17:56:16;43.22;;;18.27;;
71298;SDS011;59083;47.974;21.722;2022-11-20T17:59:37;46.87;;;19.73;;
71298;SDS011;59083;47.974;21.722;2022-11-20T18:02:38;48.53;;;20.00;;
71298;SDS011;59083;47.974;21.722;2022-11-20T18:05:39;46.50;;;19.65;;
71298;SDS011;59083;47.974;21.722;2022-11-20T18:08:40;45.50;;;19.12;;
71298;SDS011;59083;47.974;21.722;2022-11-20T18:11:42;44.55;;;19.80;;
71298;SDS011;59083;47.974;21.722;2022-11-20T18:14:44;48.70;;;20.17;;
71298;SDS011;59083;47.974;21.722;2022-11-20T18:17:47;47.60;;;20.23;;
71298;SDS011;59083;47.974;21.722;2022-11-20T18:20:51;48.70;;;20.02;;
71298;SDS011;59083;47.974;21.722;2022-11-20T18:23:54;44.50;;;19.55;;
71298;SDS011;59083;47.974;21.722;2022-11-20T18:26:55;44.53;;;20.10;;
71298;SDS011;59083;47.974;21.722;2022-11-20T18:29:57;50.77;;;22.10;;
71298;SDS011;59083;47.974;21.722;2022-11-20T18:32:59;49.40;;;20.73;;
71298;SDS011;59083;47.974;21.722;2022-11-20T18:39:11;44.38;;;21.10;;
71298;SDS011;59083;47.974;21.722;2022-11-20T18:42:14;50.63;;;21.15;;
71298;SDS011;59083;47.974;21.722;2022-11-20T18:45:35;45.27;;;18.77;;
71298;SDS011;59083;47.974;21.722;2022-11-20T18:48:36;43.60;;;19.00;;
71298;SDS011;59083;47.974;21.722;2022-11-20T18:51:38;38.63;;;18.35;;
71298;SDS011;59083;47.974;21.722;2022-11-20T18:54:40;44.42;;;19.55;;
71298;SDS011;59083;47.974;21.722;2022-11-20T18:57:42;43.90;;;18.42;;
71298;SDS011;59083;47.974;21.722;2022-11-20T19:00:43;39.27;;;17.83;;
71298;SDS011;59083;47.974;21.722;2022-11-20T19:03:44;43.07;;;17.83;;
71298;SDS011;59083;47.974;21.722;2022-11-20T19:06:47;42.53;;;17.33;;
71298;SDS011;59083;47.974;21.722;2022-11-20T19:09:52;44.30;;;17.58;;
71298;SDS011;59083;47.974;21.722;2022-11-20T19:12:54;43.25;;;17.95;;
71298;SDS011;59083;47.974;21.722;2022-11-20T19:16:00;41.30;;;17.83;;
71298;SDS011;59083;47.974;21.722;2022-11-20T19:19:03;42.40;;;17.57;;
71298;SDS011;59083;47.974;21.722;2022-11-20T19:22:05;43.97;;;17.75;;